Portada
METAR-TAF:

METAR-TAF

Aeroports :

Pembrey, Gal·les

latitud: 51-43N, longitud: 004-22W, altitud: 3 m

Observació

L'informe es va fer fa 36 minuts, a les 08:50 UTC
Vent 24 kt del Sud-Oest
Temperatura 17°C
Humitat 94%
Pressió 1023 hPa
Visibilitat: 5000 m
Núvols disperses a una alçada de 800 ft
Cel ennuvolat a una alçada de 2300 ft
plugim

METAR: EGOP 220850Z 22024KT 5000 -DZ SCT008 BKN023 17/16 Q1023 GRN

Hora: 10:26 (09:26 UTC)


TAF: manca

Observacions i pronòstics meteorològics de més de 4000 aeroports (METAR i TAF).

Les estacions disponibles són els punts grocs i vermells al mapa.

Posi el ratolí al punt desitjat per veure el nom de l'estació.

Feu clic per veure les observacions i els pronòstics meteorològics.

Per canviar el mapa: feu clic els botons verds amb una creu de color negre per apropar; al botó verd amb un guió per allunyar la imatge; o en les fletxes verdes per a mapes adjacents.


METAR-TAF: